Time;durP1;ratioP1;P1;durP2;ratioP2;P2;SDS_P1;SDS_P2;PMS_P1;PMS_P2;Temp;Humidity;BMP_temperature;BMP_pressure;BME280_temperature;BME280_humidity;BME280_pressure;Samples;Min_cycle;Max_cycle;Signal;HPM_P1;HPM_P2
2023/05/16 00:00:16;;;;;;;7.43;1.95;;;9.80;99.90;;;;;;5016076;28;20514;-70
2023/05/16 00:02:42;;;;;;;6.25;2.05;;;9.80;99.90;;;;;;5015972;28;20099;-70
2023/05/16 00:05:09;;;;;;;6.85;1.98;;;9.70;99.90;;;;;;5016365;28;20124;-70
2023/05/16 00:07:35;;;;;;;8.65;2.00;;;9.70;99.90;;;;;;5015905;28;20054;-70
2023/05/16 00:10:02;;;;;;;7.95;2.38;;;9.70;99.90;;;;;;5016423;28;20042;-70
2023/05/16 00:12:28;;;;;;;6.78;2.00;;;9.60;99.90;;;;;;5016108;28;20046;-70
2023/05/16 00:14:54;;;;;;;9.25;2.40;;;9.60;99.90;;;;;;5014920;28;20048;-70
2023/05/16 00:17:20;;;;;;;6.53;1.92;;;9.60;99.90;;;;;;5015738;28;20128;-70
2023/05/16 00:19:47;;;;;;;7.88;2.03;;;9.50;99.90;;;;;;5015666;28;20050;-70
2023/05/16 00:22:16;;;;;;;9.45;2.45;;;9.50;99.90;;;;;;5015555;28;20053;-70
2023/05/16 00:24:42;;;;;;;7.75;1.90;;;9.40;99.90;;;;;;5015584;28;20141;-71
2023/05/16 00:27:07;;;;;;;7.53;2.00;;;9.40;99.90;;;;;;5015634;28;20133;-70
2023/05/16 00:29:34;;;;;;;9.63;2.28;;;9.40;99.90;;;;;;5015518;28;20088;-70
2023/05/16 00:32:00;;;;;;;7.38;2.20;;;9.30;99.90;;;;;;5015165;28;20525;-70
2023/05/16 00:34:25;;;;;;;6.13;1.80;;;9.30;99.90;;;;;;5015182;28;20085;-70
2023/05/16 00:36:52;;;;;;;5.93;1.80;;;9.20;99.90;;;;;;5014181;28;20092;-70
2023/05/16 00:39:18;;;;;;;5.05;1.77;;;9.20;99.90;;;;;;5015087;28;20057;-70
2023/05/16 00:41:45;;;;;;;8.98;1.75;;;9.20;99.90;;;;;;5015276;28;20052;-70
2023/05/16 00:44:10;;;;;;;7.93;1.58;;;9.20;99.90;;;;;;5015240;28;20081;-71
2023/05/16 00:46:36;;;;;;;7.68;1.92;;;9.20;99.90;;;;;;5016049;28;20078;-70
2023/05/16 00:49:02;;;;;;;6.10;1.45;;;9.10;99.90;;;;;;5015942;28;20128;-70
2023/05/16 00:51:28;;;;;;;8.32;2.30;;;9.10;99.90;;;;;;5014925;28;20084;-70
2023/05/16 00:53:56;;;;;;;7.72;2.47;;;9.10;99.90;;;;;;5014937;28;20081;-70
2023/05/16 00:56:22;;;;;;;9.48;1.90;;;9.00;99.90;;;;;;5015261;28;20402;-70
2023/05/16 00:58:48;;;;;;;10.88;1.90;;;9.00;99.90;;;;;;5014039;28;20046;-70
2023/05/16 01:01:14;;;;;;;6.55;1.83;;;9.00;99.90;;;;;;5015444;28;20064;-70
2023/05/16 01:03:41;;;;;;;6.50;1.85;;;8.90;99.90;;;;;;5014899;28;20056;-70
2023/05/16 01:06:07;;;;;;;7.90;2.10;;;8.90;99.90;;;;;;5015393;28;20516;-70
2023/05/16 01:08:33;;;;;;;5.70;1.88;;;8.90;99.90;;;;;;5014841;28;20085;-71
2023/05/16 01:11:22;;;;;;;6.85;1.98;;;8.80;99.90;;;;;;5014715;28;20045;-70
2023/05/16 01:14:25;;;;;;;6.65;1.80;;;8.80;99.90;;;;;;5014749;28;20050;-70
2023/05/16 01:16:55;;;;;;;7.95;2.00;;;8.80;99.90;;;;;;5014976;28;20054;-70
2023/05/16 01:19:21;;;;;;;7.68;1.80;;;8.70;99.90;;;;;;5014691;28;20045;-70
2023/05/16 01:22:04;;;;;;;7.93;1.70;;;8.70;99.90;;;;;;5015183;28;20053;-70
2023/05/16 01:24:42;;;;;;;6.32;1.88;;;8.60;99.90;;;;;;5015143;28;20054;-70
2023/05/16 01:27:10;;;;;;;4.40;1.30;;;8.60;99.90;;;;;;5015085;28;20048;-70
2023/05/16 01:29:36;;;;;;;7.95;1.55;;;8.60;99.90;;;;;;5013716;28;20050;-70
2023/05/16 01:32:02;;;;;;;6.03;1.50;;;8.50;99.90;;;;;;5015244;28;20038;-70
2023/05/16 01:34:27;;;;;;;5.80;1.65;;;8.50;99.90;;;;;;5015116;28;20042;-70
2023/05/16 01:37:06;;;;;;;7.93;2.78;;;8.50;99.90;;;;;;5014581;28;20128;-70
2023/05/16 01:39:46;;;;;;;11.07;1.88;;;8.50;99.90;;;;;;5013374;28;20085;-70
2023/05/16 01:42:13;;;;;;;7.15;1.75;;;8.40;99.90;;;;;;5014850;28;20135;-70
2023/05/16 01:44:39;;;;;;;7.13;1.73;;;8.40;99.90;;;;;;5014225;28;20125;-70
2023/05/16 01:47:13;;;;;;;8.30;1.70;;;8.30;99.90;;;;;;5014281;28;20183;-70
2023/05/16 01:49:59;;;;;;;9.52;1.55;;;8.30;99.90;;;;;;5013907;28;20492;-70
2023/05/16 01:52:40;;;;;;;7.27;1.57;;;8.30;99.90;;;;;;5014088;28;20045;-70
2023/05/16 01:55:11;;;;;;;7.55;1.67;;;8.20;99.90;;;;;;5014058;28;20301;-70
2023/05/16 01:57:39;;;;;;;6.88;2.10;;;8.20;99.90;;;;;;5014679;28;20151;-70
2023/05/16 02:00:05;;;;;;;6.53;1.95;;;8.10;99.90;;;;;;5013993;28;20053;-70
2023/05/16 02:02:31;;;;;;;12.65;1.92;;;8.10;99.90;;;;;;5014029;28;20053;-70
2023/05/16 02:04:57;;;;;;;4.90;1.77;;;8.10;99.90;;;;;;5015158;28;20053;-69
2023/05/16 02:07:22;;;;;;;6.20;1.80;;;8.10;99.90;;;;;;5016572;28;20092;-71
2023/05/16 02:09:48;;;;;;;6.47;1.58;;;8.00;99.90;;;;;;5014452;28;20041;-71
2023/05/16 02:12:14;;;;;;;8.07;1.50;;;8.00;99.90;;;;;;5013941;28;20052;-70
2023/05/16 02:14:39;;;;;;;5.25;1.42;;;8.00;99.90;;;;;;5013614;28;20486;-70
2023/05/16 02:17:05;;;;;;;5.70;1.50;;;7.90;99.90;;;;;;5013860;28;20133;-69
2023/05/16 02:19:31;;;;;;;7.82;1.55;;;7.90;99.90;;;;;;5014380;28;20097;-70
2023/05/16 02:21:57;;;;;;;5.47;1.48;;;7.90;99.90;;;;;;5014645;28;20045;-70
2023/05/16 02:24:22;;;;;;;5.63;1.63;;;7.90;99.90;;;;;;5014322;28;20058;-70
2023/05/16 02:26:48;;;;;;;4.70;1.15;;;7.90;99.90;;;;;;5014608;28;20054;-70
2023/05/16 02:29:15;;;;;;;6.28;1.35;;;7.90;99.90;;;;;;5013797;28;20524;-70
2023/05/16 02:31:41;;;;;;;6.72;1.67;;;7.90;99.90;;;;;;5012693;28;20057;-70
2023/05/16 02:34:08;;;;;;;8.23;1.40;;;7.80;99.90;;;;;;5013623;28;20054;-70
2023/05/16 02:36:34;;;;;;;5.25;1.60;;;7.80;99.90;;;;;;5013628;28;20537;-70
2023/05/16 02:39:01;;;;;;;7.85;1.60;;;7.70;99.90;;;;;;5013642;28;20045;-70
2023/05/16 02:41:26;;;;;;;8.23;1.52;;;7.70;99.90;;;;;;5013323;28;20504;-71
2023/05/16 02:43:52;;;;;;;6.82;1.80;;;7.70;99.90;;;;;;5014109;28;20124;-70
2023/05/16 02:46:26;;;;;;;5.55;1.20;;;7.70;99.90;;;;;;5013581;28;20490;-70
2023/05/16 02:48:52;;;;;;;5.80;1.58;;;7.60;99.90;;;;;;5013525;28;20042;-70
2023/05/16 02:51:20;;;;;;;5.22;1.50;;;7.60;99.90;;;;;;5013501;28;20046;-70
2023/05/16 02:53:46;;;;;;;6.03;1.65;;;7.50;99.90;;;;;;5014070;28;20060;-70
2023/05/16 02:56:12;;;;;;;8.05;1.73;;;7.40;99.90;;;;;;5013404;28;20482;-70
2023/05/16 02:58:37;;;;;;;6.63;1.50;;;7.30;99.90;;;;;;5015381;28;20056;-70
2023/05/16 03:01:03;;;;;;;5.43;1.67;;;7.30;99.90;;;;;;5017179;28;20437;-70
2023/05/16 03:03:29;;;;;;;9.93;1.70;;;7.20;99.90;;;;;;5017193;28;20133;-70
2023/05/16 03:05:54;;;;;;;3.97;1.30;;;7.10;99.90;;;;;;5017078;28;20042;-70
2023/05/16 03:08:20;;;;;;;6.05;1.77;;;7.00;99.90;;;;;;5015938;28;20100;-70
2023/05/16 03:10:46;;;;;;;4.97;1.70;;;7.00;99.90;;;;;;5017043;28;20128;-70
2023/05/16 03:13:11;;;;;;;5.70;1.48;;;6.90;99.90;;;;;;5017050;28;20545;-70
2023/05/16 03:15:37;;;;;;;6.07;1.60;;;6.90;99.90;;;;;;5016517;28;20041;-70
2023/05/16 03:18:03;;;;;;;8.80;1.90;;;6.80;99.90;;;;;;5017185;28;20050;-70
2023/05/16 03:20:28;;;;;;;7.65;1.77;;;6.70;99.90;;;;;;5016593;28;20494;-70
2023/05/16 03:22:54;;;;;;;8.05;1.75;;;6.70;99.90;;;;;;5016700;28;20062;-70
2023/05/16 03:25:20;;;;;;;6.45;1.35;;;6.70;99.90;;;;;;5017364;28;20062;-69
2023/05/16 03:27:46;;;;;;;7.70;1.50;;;6.70;99.90;;;;;;5016772;28;20122;-70
2023/05/16 03:30:12;;;;;;;4.28;1.40;;;6.70;99.90;;;;;;5015330;28;20049;-70
2023/05/16 03:32:38;;;;;;;9.57;1.55;;;6.70;99.90;;;;;;5016185;28;20463;-70
2023/05/16 03:35:04;;;;;;;7.57;1.70;;;6.80;99.90;;;;;;5015166;28;20052;-70
2023/05/16 03:37:30;;;;;;;8.15;2.13;;;6.90;99.90;;;;;;5016347;28;20054;-70
2023/05/16 03:39:56;;;;;;;6.38;1.35;;;7.00;99.90;;;;;;5016104;28;20054;-71
2023/05/16 03:42:22;;;;;;;7.05;1.40;;;7.00;99.90;;;;;;5016081;28;20048;-70
2023/05/16 03:44:47;;;;;;;7.88;1.85;;;7.00;99.90;;;;;;5015314;28;20133;-70
2023/05/16 03:47:13;;;;;;;8.63;1.63;;;7.00;99.90;;;;;;5016548;28;20050;-71
2023/05/16 03:49:39;;;;;;;4.18;2.03;;;7.00;99.90;;;;;;5017127;28;20049;-70
2023/05/16 03:52:05;;;;;;;4.15;1.20;;;7.00;99.90;;;;;;5016387;28;20082;-70
2023/05/16 03:54:31;;;;;;;4.68;1.55;;;7.00;99.90;;;;;;5015918;28;20049;-70
2023/05/16 03:56:57;;;;;;;6.03;1.60;;;7.00;99.90;;;;;;5016175;28;20551;-70
2023/05/16 03:59:22;;;;;;;4.75;1.60;;;7.00;99.90;;;;;;5016388;28;20042;-70
2023/05/16 04:01:49;;;;;;;11.52;3.30;;;7.00;99.90;;;;;;5016122;28;20093;-70
2023/05/16 04:04:15;;;;;;;6.88;1.50;;;7.00;99.90;;;;;;5016869;28;20378;-70
2023/05/16 04:06:40;;;;;;;7.15;1.98;;;7.00;99.90;;;;;;5015681;28;20049;-71
2023/05/16 04:09:06;;;;;;;5.13;1.70;;;7.10;99.90;;;;;;5015241;28;20052;-70
2023/05/16 04:11:33;;;;;;;7.32;1.52;;;7.30;99.90;;;;;;5015873;28;20093;-71
2023/05/16 04:14:00;;;;;;;8.65;1.95;;;7.20;99.90;;;;;;5014532;28;20044;-71
2023/05/16 04:16:26;;;;;;;7.10;1.73;;;7.30;99.90;;;;;;5015897;28;20049;-70
2023/05/16 04:18:52;;;;;;;5.30;1.38;;;7.30;99.90;;;;;;5016272;28;20042;-70
2023/05/16 04:21:17;;;;;;;6.75;1.63;;;7.40;99.90;;;;;;5016496;28;20057;-70
2023/05/16 04:23:43;;;;;;;6.03;1.67;;;7.40;99.90;;;;;;5015772;28;20060;-70
2023/05/16 04:26:09;;;;;;;6.95;1.95;;;7.40;99.90;;;;;;5015615;28;20457;-71
2023/05/16 04:28:35;;;;;;;2.67;1.40;;;7.40;99.90;;;;;;5016660;28;20050;-70
2023/05/16 04:31:01;;;;;;;5.15;1.55;;;7.40;99.90;;;;;;5014257;28;20084;-70
2023/05/16 04:33:27;;;;;;;6.00;1.77;;;7.40;99.90;;;;;;5015225;28;20529;-71
2023/05/16 04:35:53;;;;;;;8.10;2.00;;;7.30;99.90;;;;;;5015596;28;20042;-71
2023/05/16 04:38:19;;;;;;;8.52;1.85;;;7.30;99.90;;;;;;5015640;28;20052;-70
2023/05/16 04:40:45;;;;;;;9.30;2.03;;;7.30;99.90;;;;;;5015311;28;20041;-71
2023/05/16 04:43:11;;;;;;;8.70;2.03;;;7.30;99.90;;;;;;5015547;28;20107;-71
2023/05/16 04:45:36;;;;;;;6.05;1.55;;;7.30;99.90;;;;;;5015268;28;20084;-70
2023/05/16 04:48:02;;;;;;;6.43;1.60;;;7.30;99.90;;;;;;5015173;28;20045;-71
2023/05/16 04:50:28;;;;;;;8.70;2.65;;;7.30;99.90;;;;;;5015187;28;20144;-71
2023/05/16 04:52:54;;;;;;;9.27;1.98;;;7.40;99.90;;;;;;5013929;28;20469;-71
2023/05/16 04:55:19;;;;;;;9.10;1.75;;;7.40;99.90;;;;;;5015256;28;20052;-71
2023/05/16 04:57:45;;;;;;;5.57;1.38;;;7.50;99.90;;;;;;5015056;28;20048;-72
2023/05/16 05:00:12;;;;;;;5.05;1.50;;;7.50;99.90;;;;;;5015053;28;20092;-71
2023/05/16 05:02:38;;;;;;;7.45;1.83;;;7.50;99.90;;;;;;5014609;28;20517;-71
2023/05/16 05:05:04;;;;;;;7.35;1.60;;;7.60;99.90;;;;;;5014903;28;20117;-71
2023/05/16 05:07:32;;;;;;;5.53;1.70;;;7.60;99.90;;;;;;5014852;28;20050;-71
2023/05/16 05:09:57;;;;;;;5.28;1.65;;;7.70;99.90;;;;;;5014802;28;20056;-71
2023/05/16 05:12:24;;;;;;;9.18;2.05;;;7.70;99.90;;;;;;5014674;28;20133;-71
2023/05/16 05:14:50;;;;;;;4.13;1.40;;;7.80;99.90;;;;;;5015243;28;20046;-71
2023/05/16 05:17:17;;;;;;;5.10;1.73;;;7.80;99.90;;;;;;5014756;28;20054;-71
2023/05/16 05:19:42;;;;;;;8.70;1.85;;;7.90;99.90;;;;;;5015168;28;20057;-71
2023/05/16 05:22:08;;;;;;;4.00;1.48;;;8.00;99.90;;;;;;5014368;28;20050;-72
2023/05/16 05:24:34;;;;;;;5.57;2.55;;;8.00;99.90;;;;;;5014499;28;20073;-70
2023/05/16 05:27:00;;;;;;;4.55;1.50;;;8.10;99.90;;;;;;5014549;28;20304;-71
2023/05/16 05:29:26;;;;;;;5.95;1.35;;;8.20;99.90;;;;;;5013297;28;20054;-71
2023/05/16 05:31:51;;;;;;;4.88;1.63;;;8.30;99.90;;;;;;5014729;28;20057;-70
2023/05/16 05:34:17;;;;;;;7.35;1.48;;;8.40;99.90;;;;;;5014906;28;20482;-71
2023/05/16 05:36:43;;;;;;;3.55;1.35;;;8.40;99.90;;;;;;5014927;28;20374;-71
2023/05/16 05:39:09;;;;;;;4.20;1.40;;;8.50;99.90;;;;;;5013962;28;20116;-71
2023/05/16 05:41:36;;;;;;;7.10;2.25;;;8.60;99.90;;;;;;5014287;28;20128;-71
2023/05/16 05:44:02;;;;;;;5.95;1.42;;;8.70;99.90;;;;;;5014826;28;20081;-71
2023/05/16 05:46:28;;;;;;;8.30;1.52;;;8.70;99.90;;;;;;5014251;28;20422;-71
2023/05/16 05:48:54;;;;;;;6.63;1.50;;;8.80;99.90;;;;;;5014207;28;20132;-71
2023/05/16 05:51:20;;;;;;;5.32;1.40;;;8.90;99.90;;;;;;5014136;28;20133;-71
2023/05/16 05:53:45;;;;;;;4.28;1.75;;;9.10;99.90;;;;;;5014095;28;20132;-72
2023/05/16 05:56:11;;;;;;;6.28;1.90;;;9.20;99.90;;;;;;5013984;28;20549;-71
2023/05/16 05:58:38;;;;;;;5.45;1.30;;;9.40;99.90;;;;;;5012796;28;20510;-71
2023/05/16 06:01:04;;;;;;;4.75;1.73;;;9.50;99.90;;;;;;5014012;28;20081;-71
2023/05/16 06:03:29;;;;;;;3.70;1.50;;;9.60;99.90;;;;;;5013970;28;20116;-71
2023/05/16 06:05:55;;;;;;;4.97;1.50;;;9.60;99.90;;;;;;5014525;28;20041;-71
2023/05/16 06:08:21;;;;;;;6.38;1.80;;;9.70;99.90;;;;;;5013225;28;20038;-72
2023/05/16 06:10:46;;;;;;;4.82;1.20;;;9.70;99.90;;;;;;5014194;28;20479;-71
2023/05/16 06:13:12;;;;;;;5.63;1.60;;;9.80;99.90;;;;;;5013863;28;20557;-71
2023/05/16 06:15:38;;;;;;;3.28;1.00;;;9.90;99.90;;;;;;5014110;28;20050;-71
2023/05/16 06:18:03;;;;;;;6.30;1.38;;;10.00;99.90;;;;;;5013104;28;20046;-65
2023/05/16 06:20:29;;;;;;;7.40;1.40;;;10.00;99.90;;;;;;5012587;28;20038;-64
2023/05/16 06:22:55;;;;;;;5.78;1.45;;;10.00;99.90;;;;;;5013538;28;20062;-64
2023/05/16 06:25:21;;;;;;;5.82;1.35;;;10.00;99.90;;;;;;5013727;28;20054;-65
2023/05/16 06:27:46;;;;;;;8.27;1.90;;;10.00;99.90;;;;;;5013740;28;20050;-64
2023/05/16 06:30:12;;;;;;;5.53;1.98;;;10.10;99.90;;;;;;5013743;28;20125;-64
2023/05/16 06:32:40;;;;;;;4.40;1.20;;;10.10;99.90;;;;;;5014914;28;20042;-65
2023/05/16 06:35:07;;;;;;;6.30;1.30;;;10.20;99.90;;;;;;5018188;28;20042;-64
2023/05/16 06:37:33;;;;;;;6.18;1.38;;;10.30;99.90;;;;;;5017555;28;20046;-64
2023/05/16 06:39:58;;;;;;;4.50;1.10;;;10.30;99.90;;;;;;5017570;28;20077;-66
2023/05/16 06:42:24;;;;;;;5.40;1.50;;;10.40;99.90;;;;;;5017635;28;20121;-64
2023/05/16 06:44:50;;;;;;;3.40;1.02;;;10.40;99.90;;;;;;5018059;28;20045;-65
2023/05/16 06:47:15;;;;;;;5.80;1.77;;;10.50;99.90;;;;;;5017422;28;20100;-64
2023/05/16 06:49:41;;;;;;;6.18;1.20;;;10.50;99.90;;;;;;5017349;28;20054;-65
2023/05/16 06:52:07;;;;;;;6.40;1.40;;;10.60;99.90;;;;;;5017338;28;20052;-64
2023/05/16 06:54:32;;;;;;;5.32;1.60;;;10.70;99.90;;;;;;5017113;28;20128;-65
2023/05/16 06:56:58;;;;;;;3.92;1.30;;;10.70;99.90;;;;;;5016998;28;20049;-64
2023/05/16 06:59:24;;;;;;;4.78;1.40;;;10.70;99.90;;;;;;5016348;28;20046;-64
2023/05/16 07:01:50;;;;;;;3.70;1.08;;;10.70;99.90;;;;;;5017341;28;20042;-64
2023/05/16 07:04:15;;;;;;;4.22;1.00;;;10.90;99.90;;;;;;5017070;28;20178;-65
2023/05/16 07:06:41;;;;;;;5.25;1.20;;;11.10;99.90;;;;;;5017124;28;20042;-65
2023/05/16 07:09:07;;;;;;;5.40;1.35;;;11.10;99.90;;;;;;5017368;28;20407;-65
2023/05/16 07:11:32;;;;;;;8.40;1.70;;;11.20;99.90;;;;;;5017477;28;20175;-66
2023/05/16 07:13:58;;;;;;;3.85;0.90;;;11.30;99.90;;;;;;5016719;28;20046;-66
2023/05/16 07:16:27;;;;;;;4.55;1.50;;;11.30;99.90;;;;;;5016814;28;19968;-66
2023/05/16 07:18:53;;;;;;;3.78;1.00;;;11.20;99.90;;;;;;5015632;28;20049;-64
2023/05/16 07:21:19;;;;;;;3.90;1.13;;;11.00;99.90;;;;;;5015808;28;20475;-67
2023/05/16 07:23:45;;;;;;;5.57;1.15;;;11.00;99.90;;;;;;5016004;28;20058;-64
2023/05/16 07:26:10;;;;;;;5.70;1.63;;;11.10;99.90;;;;;;5016020;28;20493;-64
2023/05/16 07:28:36;;;;;;;4.38;1.20;;;11.30;99.90;;;;;;5015520;28;20077;-64
2023/05/16 07:31:02;;;;;;;3.47;1.20;;;11.40;99.90;;;;;;5015438;28;20052;-66
2023/05/16 07:33:27;;;;;;;5.35;0.90;;;11.60;99.90;;;;;;5015317;28;20475;-66
2023/05/16 07:35:53;;;;;;;4.32;1.35;;;11.70;99.90;;;;;;5015820;28;20065;-66
2023/05/16 07:38:20;;;;;;;2.75;0.90;;;11.80;99.90;;;;;;5014985;28;20092;-66
2023/05/16 07:40:46;;;;;;;3.58;1.13;;;11.90;99.90;;;;;;5015287;28;20085;-66
2023/05/16 07:43:12;;;;;;;2.50;1.00;;;12.00;99.90;;;;;;5015090;28;20052;-65
2023/05/16 07:45:38;;;;;;;4.22;1.02;;;12.00;99.90;;;;;;5015001;28;20396;-65
2023/05/16 07:48:03;;;;;;;5.28;1.02;;;12.00;99.90;;;;;;5014183;28;20095;-65
2023/05/16 07:50:29;;;;;;;2.92;1.08;;;12.10;99.90;;;;;;5015705;28;20081;-64
2023/05/16 07:52:55;;;;;;;4.47;1.05;;;12.40;99.90;;;;;;5015003;28;20133;-65
2023/05/16 07:55:21;;;;;;;2.13;0.68;;;12.60;99.90;;;;;;5014932;28;20042;-64
2023/05/16 07:57:47;;;;;;;3.25;0.80;;;12.70;99.90;;;;;;4997834;28;20105;-64
2023/05/16 08:00:13;;;;;;;3.10;0.90;;;12.50;99.90;;;;;;5015006;28;20049;-64
2023/05/16 08:02:40;;;;;;;2.90;0.73;;;12.30;99.90;;;;;;5014844;28;20486;-64
2023/05/16 08:05:06;;;;;;;3.53;1.08;;;12.20;99.90;;;;;;5015171;28;20038;-65
2023/05/16 08:07:32;;;;;;;2.38;1.00;;;12.10;99.90;;;;;;5015144;28;20402;-66
2023/05/16 08:09:58;;;;;;;3.47;1.00;;;12.00;99.90;;;;;;5015051;28;20048;-65
2023/05/16 08:12:24;;;;;;;3.42;1.00;;;12.10;99.90;;;;;;5014742;28;20046;-66
2023/05/16 08:14:49;;;;;;;4.18;1.13;;;12.40;99.90;;;;;;5014702;28;20081;-66
2023/05/16 08:17:15;;;;;;;3.03;0.82;;;12.60;99.90;;;;;;5015005;28;20067;-66
2023/05/16 08:19:41;;;;;;;2.47;0.85;;;13.00;99.90;;;;;;5014726;28;20427;-66
2023/05/16 08:22:08;;;;;;;2.42;1.00;;;13.20;99.90;;;;;;5014620;28;20046;-66
2023/05/16 08:24:34;;;;;;;3.92;0.73;;;13.10;99.90;;;;;;4960249;28;1101231;-66
2023/05/16 08:27:00;;;;;;;2.60;0.82;;;12.70;99.90;;;;;;5016247;28;20065;-66
2023/05/16 08:29:26;;;;;;;2.42;0.80;;;12.50;99.90;;;;;;5014395;28;20443;-65
2023/05/16 08:31:52;;;;;;;4.20;1.00;;;12.30;99.90;;;;;;5014295;28;20046;-66
2023/05/16 08:34:17;;;;;;;4.95;1.00;;;12.50;99.90;;;;;;5015652;28;20053;-66
2023/05/16 08:36:43;;;;;;;4.28;1.00;;;12.80;99.90;;;;;;5015693;28;20042;-66
2023/05/16 08:39:12;;;;;;;3.92;0.93;;;13.10;99.90;;;;;;5015831;28;20077;-66
2023/05/16 08:41:38;;;;;;;2.72;0.88;;;13.50;99.90;;;;;;5015066;28;20049;-66
2023/05/16 08:44:04;;;;;;;3.80;0.88;;;13.70;99.90;;;;;;5015114;28;20042;-65
2023/05/16 08:46:34;;;;;;;6.43;3.38;;;13.80;99.90;;;;;;5014990;28;20525;-66
2023/05/16 08:49:02;;;;;;;2.85;0.73;;;14.10;99.90;;;;;;5015070;28;20085;-66
2023/05/16 08:51:34;;;;;;;7.88;1.20;;;14.20;99.90;;;;;;5014210;28;20042;-66
2023/05/16 08:54:03;;;;;;;1.48;0.77;;;14.10;99.90;;;;;;5015295;28;20092;-66
2023/05/16 08:56:29;;;;;;;2.63;1.00;;;13.60;99.90;;;;;;5014153;28;20058;-66
2023/05/16 08:58:56;;;;;;;3.80;1.30;;;13.20;99.90;;;;;;5014960;28;20082;-66
2023/05/16 09:01:22;;;;;;;2.38;1.00;;;13.20;99.90;;;;;;5014825;28;20046;-65
2023/05/16 09:03:49;;;;;;;2.92;0.75;;;13.40;99.90;;;;;;5014896;28;20046;-66
2023/05/16 09:06:16;;;;;;;3.65;0.70;;;13.80;99.90;;;;;;5015665;28;20387;-66
2023/05/16 09:08:42;;;;;;;3.47;1.05;;;14.00;99.90;;;;;;5015543;28;20038;-66
2023/05/16 09:11:08;;;;;;;6.95;0.90;;;14.30;99.90;;;;;;5014751;28;20048;-67
2023/05/16 09:13:34;;;;;;;3.45;0.80;;;14.50;99.90;;;;;;5014767;28;20041;-66
2023/05/16 09:16:09;;;;;;;2.78;0.90;;;14.20;99.90;;;;;;5014647;28;20038;-66
2023/05/16 09:18:36;;;;;;;4.00;0.90;;;13.70;99.90;;;;;;5014703;28;20050;-66
2023/05/16 09:21:03;;;;;;;3.90;1.65;;;13.30;99.90;;;;;;5015157;28;20085;-65
2023/05/16 09:23:29;;;;;;;4.20;1.10;;;13.00;99.90;;;;;;5014103;28;20108;-64
2023/05/16 09:25:57;;;;;;;5.18;0.90;;;13.10;99.90;;;;;;5014527;28;20546;-64
2023/05/16 09:28:24;;;;;;;3.85;0.90;;;13.40;99.90;;;;;;5014396;28;20046;-64
2023/05/16 09:30:52;;;;;;;5.15;1.00;;;13.80;99.90;;;;;;5014500;28;20049;-64
2023/05/16 09:33:18;;;;;;;4.20;1.02;;;14.20;99.90;;;;;;5014378;28;20050;-64
2023/05/16 09:35:43;;;;;;;4.47;1.05;;;14.30;99.90;;;;;;5014328;28;20046;-64
2023/05/16 09:38:14;;;;;;;6.72;1.42;;;14.00;99.90;;;;;;5014384;28;20082;-64
2023/05/16 09:40:40;;;;;;;3.38;1.15;;;13.80;99.90;;;;;;5015197;28;20081;-64
2023/05/16 09:43:07;;;;;;;6.30;1.10;;;13.70;99.90;;;;;;5014322;28;20057;-63
2023/05/16 09:45:34;;;;;;;4.60;1.15;;;14.00;99.90;;;;;;5014254;28;20120;-64
2023/05/16 09:48:07;;;;;;;4.75;1.10;;;14.40;99.90;;;;;;5014141;28;20050;-64
2023/05/16 09:50:34;;;;;;;3.65;1.10;;;14.70;99.90;;;;;;5014464;28;20128;-64
2023/05/16 09:53:01;;;;;;;4.25;1.20;;;14.80;99.90;;;;;;5013055;28;20058;-64
2023/05/16 09:55:27;;;;;;;3.65;1.13;;;14.60;99.90;;;;;;5014366;28;20100;-64
2023/05/16 09:57:53;;;;;;;6.30;1.20;;;14.50;99.90;;;;;;5014141;28;20430;-64
2023/05/16 10:00:19;;;;;;;2.17;1.13;;;14.30;99.90;;;;;;5013598;28;20470;-64
2023/05/16 10:02:44;;;;;;;6.03;1.30;;;14.10;99.90;;;;;;5014011;28;20390;-64
2023/05/16 10:05:10;;;;;;;4.30;1.10;;;13.80;99.90;;;;;;5014036;28;20108;-64
2023/05/16 10:07:38;;;;;;;3.13;0.90;;;13.60;99.90;;;;;;5014091;28;20434;-64
2023/05/16 10:10:07;;;;;;;4.10;0.93;;;13.70;99.90;;;;;;5014001;28;20046;-64
2023/05/16 10:12:35;;;;;;;1.95;0.60;;;14.20;99.90;;;;;;5014285;28;20053;-64
2023/05/16 10:15:03;;;;;;;3.38;0.90;;;14.40;99.90;;;;;;5013799;28;20054;-63
2023/05/16 10:17:32;;;;;;;2.80;1.10;;;14.40;99.90;;;;;;5013846;28;20050;-64
2023/05/16 10:20:04;;;;;;;2.67;0.80;;;14.50;99.90;;;;;;5013460;28;20050;-64
2023/05/16 10:22:34;;;;;;;3.75;0.82;;;14.70;99.90;;;;;;5014400;28;20057;-64
2023/05/16 10:25:29;;;;;;;3.95;0.93;;;15.00;99.90;;;;;;5013225;28;20422;-64
2023/05/16 10:27:55;;;;;;;1.98;0.80;;;15.20;99.90;;;;;;5013290;28;20120;-64
2023/05/16 10:30:21;;;;;;;3.08;0.90;;;15.30;99.90;;;;;;5013438;28;20553;-64
2023/05/16 10:32:47;;;;;;;3.63;0.80;;;15.30;99.90;;;;;;5014453;28;20057;-64
2023/05/16 10:35:13;;;;;;;2.22;0.80;;;15.20;99.90;;;;;;5012436;28;20052;-64
2023/05/16 10:37:41;;;;;;;2.75;0.70;;;15.10;99.90;;;;;;5014167;28;20049;-64
2023/05/16 10:40:07;;;;;;;3.90;1.38;;;14.90;99.90;;;;;;5013609;28;20553;-64
2023/05/16 10:42:33;;;;;;;3.28;0.80;;;15.00;99.90;;;;;;5014143;28;20434;-64
2023/05/16 10:45:29;;;;;;;2.67;1.05;;;15.10;99.90;;;;;;5014136;28;20046;-64
2023/05/16 10:47:57;;;;;;;3.47;0.80;;;15.40;99.90;;;;;;5009106;28;20058;-64
2023/05/16 10:50:42;;;;;;;3.47;1.10;;;15.60;99.90;;;;;;5013524;28;20426;-64
2023/05/16 10:53:21;;;;;;;3.15;0.77;;;16.00;99.90;;;;;;5013591;28;20065;-65
2023/05/16 10:56:05;;;;;;;3.63;1.00;;;15.80;99.90;;;;;;5013407;28;20049;-64
2023/05/16 10:58:39;;;;;;;7.85;1.02;;;15.40;99.90;;;;;;5013781;28;20458;-64
2023/05/16 11:01:33;;;;;;;3.88;1.15;;;15.20;99.90;;;;;;5013744;28;20046;-64
2023/05/16 11:04:00;;;;;;;3.08;0.70;;;15.50;99.90;;;;;;5013468;28;20045;-64
2023/05/16 11:06:33;;;;;;;4.05;0.95;;;15.90;99.90;;;;;;5013286;28;20038;-64
2023/05/16 11:11:39;;;;;;;3.50;1.00;;;16.50;99.90;;;;;;5013558;28;20054;-64
2023/05/16 11:14:05;;;;;;;4.75;1.08;;;16.70;99.90;;;;;;5014164;28;20421;-64
2023/05/16 11:16:33;;;;;;;3.05;0.80;;;16.90;99.90;;;;;;5012834;28;20108;-66
2023/05/16 11:19:06;;;;;;;3.92;0.75;;;17.10;99.90;;;;;;5014040;28;20128;-64
2023/05/16 11:22:05;;;;;;;2.53;0.80;;;17.30;99.90;;;;;;5016740;28;20554;-64
2023/05/16 11:24:31;;;;;;;2.47;0.75;;;17.50;99.90;;;;;;5012734;28;20471;-63
2023/05/16 11:27:00;;;;;;;3.13;0.88;;;17.40;99.90;;;;;;5016782;28;20141;-64
2023/05/16 11:29:32;;;;;;;3.80;0.82;;;16.90;99.90;;;;;;5017241;28;20382;-64
2023/05/16 11:31:59;;;;;;;4.75;1.10;;;16.30;99.90;;;;;;5017048;28;20115;-64
2023/05/16 11:34:26;;;;;;;3.53;0.75;;;16.00;99.90;;;;;;5017270;28;20038;-63
2023/05/16 11:36:51;;;;;;;2.60;0.90;;;16.20;99.90;;;;;;5017274;28;20124;-63
2023/05/16 11:39:20;;;;;;;3.10;0.80;;;16.20;99.90;;;;;;5015831;28;20128;-64
2023/05/16 11:41:46;;;;;;;3.33;0.93;;;16.20;99.90;;;;;;5016471;28;20050;-64
2023/05/16 11:44:12;;;;;;;2.90;0.73;;;16.10;99.90;;;;;;5016391;28;20057;-65
2023/05/16 11:46:41;;;;;;;2.85;0.77;;;15.80;99.90;;;;;;5015972;28;20498;-64
2023/05/16 11:49:10;;;;;;;3.05;0.82;;;15.50;99.90;;;;;;5017181;28;20042;-64
2023/05/16 11:51:42;;;;;;;2.92;0.90;;;15.30;99.90;;;;;;5015241;28;20046;-64
2023/05/16 11:54:11;;;;;;;3.88;0.80;;;15.60;99.90;;;;;;5016160;28;20049;-66
2023/05/16 11:56:39;;;;;;;2.03;0.75;;;16.10;99.90;;;;;;5016143;28;20046;-67
2023/05/16 11:59:05;;;;;;;3.13;0.70;;;16.40;99.90;;;;;;5015982;28;20080;-66
2023/05/16 12:01:37;;;;;;;2.85;0.88;;;16.30;99.90;;;;;;5015972;28;20092;-66
2023/05/16 12:04:13;;;;;;;1.90;0.70;;;16.50;99.90;;;;;;5016049;28;20041;-68
2023/05/16 12:06:39;;;;;;;2.55;1.02;;;16.70;99.90;;;;;;5015837;28;20430;-67
2023/05/16 12:09:10;;;;;;;5.38;1.08;;;16.60;99.90;;;;;;5015968;28;20108;-66
2023/05/16 12:11:41;;;;;;;2.67;0.90;;;16.30;99.90;;;;;;5016147;28;20057;-65
2023/05/16 12:14:09;;;;;;;2.83;0.82;;;16.00;99.90;;;;;;5015655;28;20380;-65
2023/05/16 12:16:36;;;;;;;2.92;0.90;;;16.00;99.90;;;;;;5016350;28;20356;-66
2023/05/16 12:19:04;;;;;;;2.58;1.10;;;16.30;99.90;;;;;;5016223;28;20061;-66
2023/05/16 12:21:31;;;;;;;4.85;1.48;;;16.50;99.90;;;;;;5015781;28;20065;-66
2023/05/16 12:24:00;;;;;;;3.00;1.02;;;16.50;99.90;;;;;;5014943;28;20487;-65
2023/05/16 12:26:29;;;;;;;3.28;1.40;;;16.50;99.90;;;;;;5014401;28;20478;-66
2023/05/16 12:28:59;;;;;;;4.10;1.60;;;16.40;99.90;;;;;;5015497;28;20085;-65
2023/05/16 12:31:26;;;;;;;3.10;1.30;;;16.30;99.90;;;;;;5014150;28;20093;-65
2023/05/16 12:33:54;;;;;;;3.67;1.27;;;16.20;99.90;;;;;;5015294;28;20057;-65
2023/05/16 12:36:21;;;;;;;3.47;1.33;;;16.50;99.90;;;;;;5015104;28;20046;-67
2023/05/16 12:38:47;;;;;;;3.55;1.50;;;16.40;99.90;;;;;;5015354;28;20487;-67
2023/05/16 12:41:22;;;;;;;5.47;1.77;;;16.70;99.90;;;;;;5015749;28;20050;-68
2023/05/16 12:43:49;;;;;;;4.37;1.53;;;17.10;99.90;;;;;;5015295;28;20049;-66
2023/05/16 12:46:15;;;;;;;5.22;1.30;;;17.50;99.90;;;;;;5015074;28;20304;-65
2023/05/16 12:48:42;;;;;;;4.25;1.30;;;18.00;99.90;;;;;;5015652;28;20104;-65
2023/05/16 12:51:15;;;;;;;3.25;1.52;;;18.20;99.90;;;;;;5014858;28;20434;-65
2023/05/16 12:53:45;;;;;;;5.43;2.00;;;18.20;99.90;;;;;;5015477;28;20096;-65